createdAt,value
2019-02-26T00:01:08.073Z,39.04
2019-02-26T00:02:17.064Z,39.03
2019-02-26T00:03:22.380Z,38.46
2019-02-26T00:04:27.296Z,39.17
2019-02-26T00:05:33.216Z,39.47
2019-02-26T00:06:38.189Z,38.60
2019-02-26T00:07:44.422Z,38.73
2019-02-26T00:08:51.873Z,38.71
2019-02-26T00:09:57.541Z,39.31
2019-02-26T00:11:03.721Z,39.02
2019-02-26T00:12:09.851Z,39.32
2019-02-26T00:13:14.622Z,38.98
2019-02-26T00:14:20.363Z,38.94
2019-02-26T00:15:26.407Z,39.06
2019-02-26T00:16:35.378Z,39.71
2019-02-26T00:17:40.466Z,39.18
2019-02-26T00:18:45.050Z,39.33
2019-02-26T00:19:50.076Z,39.14
2019-02-26T00:20:56.713Z,38.76
2019-02-26T00:22:01.478Z,38.83
2019-02-26T00:23:06.517Z,39.09
2019-02-26T00:24:12.934Z,39.02
2019-02-26T00:25:18.410Z,38.76
2019-02-26T00:26:24.404Z,38.68
2019-02-26T00:27:30.617Z,38.87
2019-02-26T00:28:36.540Z,39.08
2019-02-26T00:29:44.339Z,38.96
2019-02-26T00:30:50.159Z,39.35
2019-02-26T00:31:57.532Z,38.91
2019-02-26T00:33:02.682Z,39.29
2019-02-26T00:34:10.757Z,39.23
2019-02-26T00:35:16.518Z,38.64
2019-02-26T00:36:22.547Z,38.58
2019-02-26T00:37:28.511Z,39.01
2019-02-26T00:38:35.418Z,39.08
2019-02-26T00:39:41.591Z,39.72
2019-02-26T00:40:46.267Z,39.71
2019-02-26T00:41:53.274Z,40.15
2019-02-26T00:43:00.171Z,39.87
2019-02-26T00:44:06.210Z,39.55
2019-02-26T00:45:10.704Z,39.42
2019-02-26T00:46:15.976Z,39.51
2019-02-26T00:47:20.956Z,39.22
2019-02-26T00:48:26.206Z,39.70
2019-02-26T00:49:31.393Z,39.03
2019-02-26T00:50:37.413Z,38.87
2019-02-26T00:51:46.020Z,38.80
2019-02-26T00:52:49.599Z,38.83
2019-02-26T00:53:55.587Z,38.78
2019-02-26T00:55:03.185Z,38.99
2019-02-26T00:56:10.290Z,39.36
2019-02-26T00:57:15.387Z,39.88
2019-02-26T00:58:20.072Z,39.71
2019-02-26T00:59:25.054Z,40.10
2019-02-26T01:00:30.870Z,39.66
2019-02-26T01:01:36.800Z,39.95
2019-02-26T01:02:42.078Z,39.66
2019-02-26T01:03:49.236Z,40.17
2019-02-26T01:04:54.494Z,39.95
2019-02-26T01:06:01.489Z,40.48
2019-02-26T01:07:07.454Z,40.02
2019-02-26T01:08:13.328Z,40.73
2019-02-26T01:09:19.047Z,41.11
2019-02-26T01:10:24.232Z,41.12
2019-02-26T01:11:30.252Z,41.37
2019-02-26T01:12:35.739Z,41.63
2019-02-26T01:13:42.425Z,40.99
2019-02-26T01:14:50.299Z,41.21
2019-02-26T01:15:54.196Z,40.99
2019-02-26T01:16:59.309Z,40.85
2019-02-26T01:18:05.625Z,40.83
2019-02-26T01:19:11.348Z,40.18
2019-02-26T01:20:19.344Z,40.84
2019-02-26T01:21:26.331Z,41.03
2019-02-26T01:22:33.029Z,40.94
2019-02-26T01:23:38.942Z,41.00
2019-02-26T01:24:44.216Z,40.46
2019-02-26T01:25:49.246Z,40.08
2019-02-26T01:26:53.940Z,41.13
2019-02-26T01:28:00.451Z,40.01
2019-02-26T01:29:05.375Z,40.43
2019-02-26T01:30:11.902Z,40.69
2019-02-26T01:31:16.945Z,40.50
2019-02-26T01:32:23.177Z,40.78
2019-02-26T01:33:30.196Z,41.63
2019-02-26T01:34:35.646Z,41.88
2019-02-26T01:35:40.915Z,41.92
2019-02-26T01:36:47.768Z,41.58
2019-02-26T01:37:54.028Z,41.48
2019-02-26T01:39:00.242Z,41.48
2019-02-26T01:40:12.260Z,41.88
2019-02-26T01:41:15.579Z,41.46
2019-02-26T01:42:24.285Z,41.48
2019-02-26T01:43:27.871Z,41.10
2019-02-26T01:44:35.021Z,41.62
2019-02-26T01:45:39.807Z,41.49
2019-02-26T01:46:45.414Z,40.77
2019-02-26T01:47:52.753Z,40.57
2019-02-26T01:48:59.888Z,41.21
2019-02-26T01:50:06.938Z,41.02
2019-02-26T01:51:12.266Z,41.99
2019-02-26T01:52:17.557Z,41.44
2019-02-26T01:53:23.705Z,41.40
2019-02-26T01:54:30.514Z,41.46
2019-02-26T01:55:35.767Z,42.08
2019-02-26T01:56:40.739Z,41.45
2019-02-26T01:57:45.420Z,41.24
2019-02-26T01:58:56.320Z,41.76
2019-02-26T01:59:56.857Z,41.68
2019-02-26T02:01:02.130Z,41.76
2019-02-26T02:02:07.088Z,42.12
2019-02-26T02:03:12.355Z,41.84
2019-02-26T02:04:19.497Z,41.46
2019-02-26T02:05:28.168Z,41.97
2019-02-26T02:06:33.124Z,42.08
2019-02-26T02:07:38.026Z,41.80
2019-02-26T02:08:45.417Z,42.94
2019-02-26T02:09:51.292Z,42.44
2019-02-26T02:10:59.176Z,42.54
2019-02-26T02:12:04.313Z,42.97
2019-02-26T02:13:11.470Z,42.52
2019-02-26T02:14:17.040Z,41.92
2019-02-26T02:15:23.691Z,41.61
2019-02-26T02:16:30.896Z,41.79
2019-02-26T02:17:37.375Z,41.76
2019-02-26T02:18:46.014Z,41.57
2019-02-26T02:19:49.032Z,41.00
2019-02-26T02:20:54.305Z,41.58
2019-02-26T02:21:59.258Z,41.26
2019-02-26T02:23:06.991Z,42.07
2019-02-26T02:24:13.273Z,41.75
2019-02-26T02:25:18.868Z,42.00
2019-02-26T02:26:23.618Z,41.69
2019-02-26T02:27:30.362Z,41.72
2019-02-26T02:28:35.577Z,42.17
2019-02-26T02:29:43.789Z,41.54
2019-02-26T02:30:48.273Z,41.30
2019-02-26T02:31:54.809Z,41.05
2019-02-26T02:33:02.111Z,41.07
2019-02-26T02:34:07.546Z,40.65
2019-02-26T02:35:13.422Z,40.82
2019-02-26T02:36:22.522Z,40.79
2019-02-26T02:37:27.453Z,40.80
2019-02-26T02:38:36.537Z,40.92
2019-02-26T02:39:40.502Z,41.38
2019-02-26T02:40:46.408Z,41.48
2019-02-26T02:41:54.890Z,41.92
2019-02-26T02:43:04.132Z,42.04
2019-02-26T02:44:05.315Z,41.90
2019-02-26T02:45:16.139Z,41.65
2019-02-26T02:46:18.660Z,41.62
2019-02-26T02:47:25.318Z,42.38
2019-02-26T02:48:30.366Z,42.49
2019-02-26T02:49:37.457Z,42.33
2019-02-26T02:50:42.322Z,42.08
2019-02-26T02:51:47.292Z,43.09
2019-02-26T02:52:53.520Z,42.94
2019-02-26T02:53:59.329Z,43.12
2019-02-26T02:55:04.927Z,42.69
2019-02-26T02:56:12.907Z,42.50
2019-02-26T02:57:17.599Z,42.31
2019-02-26T02:58:23.964Z,42.09
2019-02-26T02:59:31.053Z,42.56
2019-02-26T03:00:36.045Z,42.55
2019-02-26T03:01:43.019Z,42.20
2019-02-26T03:02:50.116Z,42.56
2019-02-26T03:03:56.433Z,42.76
2019-02-26T03:05:01.442Z,42.43
2019-02-26T03:06:09.159Z,42.53
2019-02-26T03:07:15.242Z,42.39
2019-02-26T03:08:22.305Z,42.74
2019-02-26T03:09:27.407Z,43.01
2019-02-26T03:10:34.635Z,42.53
2019-02-26T03:11:41.976Z,42.70
2019-02-26T03:12:51.233Z,43.21
2019-02-26T03:13:53.835Z,42.89
2019-02-26T03:15:02.108Z,42.44
2019-02-26T03:16:05.727Z,42.32
2019-02-26T03:17:11.504Z,42.66
2019-02-26T03:18:17.796Z,42.53
2019-02-26T03:19:22.817Z,42.48
2019-02-26T03:20:30.763Z,42.63
2019-02-26T03:21:34.336Z,42.77
2019-02-26T03:22:42.243Z,43.66
2019-02-26T03:23:46.822Z,43.28
2019-02-26T03:24:54.367Z,43.30
2019-02-26T03:25:59.210Z,43.47
2019-02-26T03:27:03.897Z,43.23
2019-02-26T03:28:09.513Z,43.26
2019-02-26T03:29:14.535Z,43.22
2019-02-26T03:30:31.362Z,43.48
2019-02-26T03:31:31.018Z,43.08
2019-02-26T03:32:36.697Z,42.95
2019-02-26T03:33:42.597Z,43.85
2019-02-26T03:34:47.621Z,43.31
2019-02-26T03:35:52.901Z,43.45
2019-02-26T03:36:59.946Z,43.42
2019-02-26T03:38:04.914Z,43.26
2019-02-26T03:39:09.895Z,43.67
2019-02-26T03:40:14.673Z,44.44
2019-02-26T03:41:22.745Z,43.97
2019-02-26T03:42:27.428Z,43.99
2019-02-26T03:43:34.180Z,43.75
2019-02-26T03:44:39.381Z,43.88
2019-02-26T03:45:47.330Z,44.30
2019-02-26T03:46:50.836Z,43.88
2019-02-26T03:47:58.056Z,43.91
2019-02-26T03:49:03.664Z,45.00
2019-02-26T03:50:12.363Z,44.54
2019-02-26T03:51:17.985Z,43.86
2019-02-26T03:52:23.337Z,43.73
2019-02-26T03:53:31.326Z,43.82
2019-02-26T03:54:39.850Z,43.60
2019-02-26T03:55:43.964Z,43.82
2019-02-26T03:56:49.676Z,44.16
2019-02-26T03:57:56.986Z,43.92
2019-02-26T03:59:04.001Z,43.83
2019-02-26T04:00:11.308Z,43.84
2019-02-26T04:01:18.689Z,43.41
2019-02-26T04:02:23.518Z,44.60
2019-02-26T04:03:29.674Z,44.76
2019-02-26T04:04:35.058Z,44.56
2019-02-26T04:05:40.053Z,44.81
2019-02-26T04:06:47.068Z,43.65
2019-02-26T04:07:58.805Z,44.22
2019-02-26T04:09:02.856Z,44.17
2019-02-26T04:10:10.010Z,44.22
2019-02-26T04:11:16.898Z,44.13
2019-02-26T04:12:22.105Z,44.21
2019-02-26T04:13:27.069Z,44.06
2019-02-26T04:14:31.844Z,44.09
2019-02-26T04:15:38.341Z,45.01
2019-02-26T04:16:43.799Z,45.04
2019-02-26T04:17:49.301Z,44.58
2019-02-26T04:18:54.567Z,44.07
2019-02-26T04:19:59.275Z,43.77
2019-02-26T04:21:05.933Z,43.57
2019-02-26T04:22:28.906Z,43.51
2019-02-26T04:23:36.155Z,44.74
2019-02-26T04:24:41.700Z,44.37
2019-02-26T04:25:59.398Z,44.86
2019-02-26T04:27:30.690Z,45.03
2019-02-26T04:29:03.468Z,44.61
2019-02-26T04:30:43.873Z,44.93
2019-02-26T04:32:30.065Z,45.10
2019-02-26T04:34:08.678Z,45.19
2019-02-26T04:35:53.511Z,44.69
2019-02-26T04:37:36.089Z,44.94
2019-02-26T04:39:10.854Z,44.66
2019-02-26T04:40:30.266Z,45.87
2019-02-26T04:41:54.872Z,44.92
2019-02-26T04:43:13.306Z,45.58
2019-02-26T04:44:52.376Z,46.16
2019-02-26T04:46:34.457Z,46.58
2019-02-26T04:47:40.938Z,45.03
2019-02-26T04:48:45.678Z,44.52
2019-02-26T04:49:50.962Z,44.03
2019-02-26T04:50:55.985Z,44.87
2019-02-26T04:52:02.962Z,44.95
2019-02-26T04:53:10.523Z,45.62
2019-02-26T04:54:21.160Z,46.67
2019-02-26T04:55:24.148Z,46.61
2019-02-26T04:56:33.475Z,46.62
2019-02-26T04:57:39.418Z,48.23
2019-02-26T04:58:45.407Z,47.16
2019-02-26T04:59:50.368Z,46.11
2019-02-26T05:00:55.412Z,45.69
2019-02-26T05:02:00.649Z,45.79
2019-02-26T05:03:08.614Z,45.86
2019-02-26T05:04:16.531Z,46.88
2019-02-26T05:05:22.390Z,46.96
2019-02-26T05:06:29.371Z,46.22
2019-02-26T05:07:35.613Z,45.06
2019-02-26T05:08:42.849Z,44.80
2019-02-26T05:09:51.109Z,45.54
2019-02-26T05:10:57.465Z,44.84
2019-02-26T05:12:02.282Z,45.34
2019-02-26T05:13:09.540Z,45.09
2019-02-26T05:14:15.070Z,46.06
2019-02-26T05:15:23.056Z,45.70
2019-02-26T05:16:29.493Z,45.34
2019-02-26T05:17:35.022Z,45.34
2019-02-26T05:18:39.991Z,45.42
2019-02-26T05:19:48.407Z,45.53
2019-02-26T05:20:52.822Z,46.11
2019-02-26T05:21:59.366Z,46.29
2019-02-26T05:23:06.348Z,45.48
2019-02-26T05:24:13.081Z,45.89
2019-02-26T05:25:19.819Z,45.48
2019-02-26T05:26:24.112Z,45.39
2019-02-26T05:27:28.804Z,46.50
2019-02-26T05:28:37.675Z,46.59
2019-02-26T05:29:42.875Z,46.34
2019-02-26T05:30:49.512Z,45.99
2019-02-26T05:31:55.670Z,45.75
2019-02-26T05:33:02.906Z,45.52
2019-02-26T05:34:06.935Z,45.08
2019-02-26T05:35:14.177Z,45.36
2019-02-26T05:36:19.175Z,46.24
2019-02-26T05:37:28.536Z,45.81
2019-02-26T05:38:32.973Z,45.46
2019-02-26T05:39:40.533Z,45.72
2019-02-26T05:40:48.212Z,45.36
2019-02-26T05:41:54.942Z,45.65
2019-02-26T05:43:01.242Z,45.41
2019-02-26T05:44:08.358Z,45.34
2019-02-26T05:45:12.735Z,45.27
2019-02-26T05:46:19.510Z,45.58
2019-02-26T05:47:26.579Z,45.70
2019-02-26T05:48:31.778Z,45.66
2019-02-26T05:49:38.763Z,45.76
2019-02-26T05:50:44.687Z,45.97
2019-02-26T05:51:50.142Z,45.53
2019-02-26T05:52:57.998Z,45.42
2019-02-26T05:54:07.597Z,44.93
2019-02-26T05:55:08.442Z,44.65
2019-02-26T05:56:14.591Z,45.23
2019-02-26T05:57:27.638Z,45.38
2019-02-26T05:58:27.133Z,45.72
2019-02-26T05:59:32.268Z,45.97
2019-02-26T06:00:36.965Z,45.94
2019-02-26T06:01:43.766Z,45.56
2019-02-26T06:02:50.998Z,45.37
2019-02-26T06:03:56.193Z,45.20
2019-02-26T06:05:01.214Z,45.11
2019-02-26T06:06:06.195Z,45.35
2019-02-26T06:07:11.446Z,45.55
2019-02-26T06:08:16.715Z,45.92
2019-02-26T06:09:24.885Z,45.28
2019-02-26T06:10:30.528Z,45.86
2019-02-26T06:11:36.804Z,46.64
2019-02-26T06:12:44.645Z,46.45
2019-02-26T06:13:48.987Z,46.35
2019-02-26T06:15:00.737Z,46.85
2019-02-26T06:16:05.345Z,46.69
2019-02-26T06:17:12.535Z,46.39
2019-02-26T06:18:17.167Z,46.05
2019-02-26T06:19:40.183Z,46.29
2019-02-26T06:20:44.776Z,46.35
2019-02-26T06:21:52.515Z,46.73
2019-02-26T06:22:56.770Z,46.41
2019-02-26T06:24:01.754Z,46.23
2019-02-26T06:25:09.603Z,45.97
2019-02-26T06:26:15.598Z,46.00
2019-02-26T06:27:22.721Z,45.94
2019-02-26T06:28:27.607Z,46.47
2019-02-26T06:29:34.906Z,46.13
2019-02-26T06:30:39.858Z,46.69
2019-02-26T06:31:46.826Z,46.92
2019-02-26T06:32:51.826Z,46.47
2019-02-26T06:33:56.807Z,46.31
2019-02-26T06:35:02.326Z,46.25
2019-02-26T06:36:07.310Z,46.62
2019-02-26T06:37:17.194Z,46.17
2019-02-26T06:38:23.443Z,46.41
2019-02-26T06:39:29.821Z,46.58
2019-02-26T06:40:37.007Z,46.14
2019-02-26T06:41:44.365Z,46.02
2019-02-26T06:42:49.668Z,46.49
2019-02-26T06:43:55.168Z,46.89
2019-02-26T06:45:00.334Z,46.02
2019-02-26T06:46:09.181Z,46.10
2019-02-26T06:47:12.113Z,46.84
2019-02-26T06:48:20.182Z,46.86
2019-02-26T06:49:25.165Z,46.64
2019-02-26T06:50:31.850Z,45.98
2019-02-26T06:51:37.727Z,45.77
2019-02-26T06:52:44.745Z,46.20
2019-02-26T06:53:51.655Z,45.91
2019-02-26T06:54:59.558Z,45.33
2019-02-26T06:56:02.474Z,45.68
2019-02-26T06:57:08.729Z,45.76
2019-02-26T06:58:24.323Z,45.85
2019-02-26T06:59:32.474Z,45.43
2019-02-26T07:00:37.668Z,45.10
2019-02-26T07:01:42.942Z,45.27
2019-02-26T07:02:47.402Z,45.47
2019-02-26T07:03:53.835Z,45.81
2019-02-26T07:04:59.430Z,46.38
2019-02-26T07:06:04.957Z,45.51
2019-02-26T07:07:13.798Z,45.60
2019-02-26T07:08:16.102Z,45.04
2019-02-26T07:09:21.201Z,45.52
2019-02-26T07:10:28.721Z,45.69
2019-02-26T07:11:36.097Z,45.35
2019-02-26T07:12:41.360Z,46.09
2019-02-26T07:13:47.164Z,46.94
2019-02-26T07:14:55.579Z,44.65
2019-02-26T07:16:04.607Z,44.66
2019-02-26T07:17:08.448Z,44.66
2019-02-26T07:18:16.981Z,44.44
2019-02-26T07:19:20.122Z,44.67
2019-02-26T07:20:33.686Z,44.24
2019-02-26T07:21:31.559Z,44.26
2019-02-26T07:22:37.001Z,45.17
2019-02-26T07:23:42.249Z,44.94
2019-02-26T07:24:49.451Z,44.40
2019-02-26T07:25:54.211Z,44.24
2019-02-26T07:26:59.178Z,43.46
2019-02-26T07:28:04.435Z,44.33
2019-02-26T07:29:12.235Z,43.81
2019-02-26T07:30:16.420Z,43.68
2019-02-26T07:31:21.665Z,42.70
2019-02-26T07:32:26.911Z,42.39
2019-02-26T07:33:34.324Z,42.40
2019-02-26T07:34:40.422Z,42.30
2019-02-26T07:35:45.039Z,41.91
2019-02-26T07:36:52.315Z,41.30
2019-02-26T07:37:58.816Z,41.22
2019-02-26T07:39:05.091Z,41.27
2019-02-26T07:40:11.112Z,41.67
2019-02-26T07:41:18.376Z,40.84
2019-02-26T07:42:23.155Z,40.86
2019-02-26T07:43:28.702Z,40.20
2019-02-26T07:44:33.677Z,39.78
2019-02-26T07:45:38.355Z,39.58
2019-02-26T07:46:44.831Z,39.64
2019-02-26T07:47:51.476Z,39.09
2019-02-26T07:48:59.902Z,38.69
2019-02-26T07:50:06.790Z,38.63
2019-02-26T07:51:11.778Z,38.24
2019-02-26T07:52:17.019Z,37.96
2019-02-26T07:53:22.870Z,38.13
2019-02-26T07:54:29.067Z,37.84
2019-02-26T07:55:35.385Z,37.65
2019-02-26T07:56:41.167Z,37.45
2019-02-26T07:57:48.009Z,37.38
2019-02-26T07:58:56.970Z,37.26
2019-02-26T07:59:59.874Z,36.92
2019-02-26T08:01:04.833Z,36.87
2019-02-26T08:02:11.320Z,36.73
2019-02-26T08:03:17.387Z,36.73
2019-02-26T08:04:23.347Z,36.42
2019-02-26T08:05:28.951Z,36.55
2019-02-26T08:06:34.413Z,36.12
2019-02-26T08:07:40.417Z,36.31
2019-02-26T08:08:48.460Z,36.24
2019-02-26T08:09:52.797Z,35.72
2019-02-26T08:10:58.106Z,35.54
2019-02-26T08:12:04.335Z,35.00
2019-02-26T08:13:09.950Z,34.67
2019-02-26T08:14:16.186Z,34.45
2019-02-26T08:15:21.591Z,34.58
2019-02-26T08:16:27.676Z,34.64
2019-02-26T08:17:32.433Z,34.57
2019-02-26T08:18:37.388Z,33.89
2019-02-26T08:19:46.392Z,33.66
2019-02-26T08:20:49.631Z,33.17
2019-02-26T08:21:56.760Z,32.44
2019-02-26T08:23:02.053Z,30.25
2019-02-26T08:24:07.282Z,30.61
2019-02-26T08:25:11.872Z,30.35
2019-02-26T08:26:17.947Z,31.06
2019-02-26T08:27:23.587Z,30.89
2019-02-26T08:28:28.556Z,30.91
2019-02-26T08:29:36.126Z,31.01
2019-02-26T08:30:44.435Z,30.91
2019-02-26T08:31:49.322Z,31.51
2019-02-26T08:32:54.240Z,31.65
2019-02-26T08:34:00.099Z,31.02
2019-02-26T08:35:04.900Z,30.99
2019-02-26T08:36:13.524Z,30.87
2019-02-26T08:37:17.788Z,30.61
2019-02-26T08:38:22.751Z,30.64
2019-02-26T08:39:27.719Z,30.87
2019-02-26T08:40:32.401Z,30.63
2019-02-26T08:41:37.730Z,30.71
2019-02-26T08:42:42.692Z,31.21
2019-02-26T08:43:49.631Z,30.96
2019-02-26T08:44:56.001Z,30.84
2019-02-26T08:46:01.856Z,30.86
2019-02-26T08:47:11.102Z,31.88
2019-02-26T08:48:15.027Z,31.14
2019-02-26T08:49:22.513Z,30.95
2019-02-26T08:50:30.690Z,31.32
2019-02-26T08:51:34.230Z,31.78
2019-02-26T08:52:39.807Z,31.32
2019-02-26T08:53:47.023Z,30.73
2019-02-26T08:54:51.281Z,30.03
2019-02-26T08:55:58.762Z,30.23
2019-02-26T08:57:03.205Z,30.28
2019-02-26T08:58:10.686Z,30.18
2019-02-26T08:59:16.038Z,29.66
2019-02-26T09:00:21.432Z,30.17
2019-02-26T09:01:26.423Z,29.88
2019-02-26T09:02:31.385Z,30.20
2019-02-26T09:03:40.608Z,30.50
2019-02-26T09:04:45.088Z,30.40
2019-02-26T09:05:51.607Z,30.93
2019-02-26T09:07:00.282Z,29.99
2019-02-26T09:08:05.960Z,31.06
2019-02-26T09:09:11.442Z,30.18
2019-02-26T09:10:17.837Z,29.63
2019-02-26T09:11:26.073Z,29.79
2019-02-26T09:12:30.653Z,28.78
2019-02-26T09:13:36.302Z,28.89
2019-02-26T09:14:45.121Z,28.93
2019-02-26T09:15:49.671Z,29.79
2019-02-26T09:16:56.904Z,29.75
2019-02-26T09:18:01.339Z,28.87
2019-02-26T09:19:06.063Z,29.33
2019-02-26T09:20:15.395Z,30.42
2019-02-26T09:21:22.391Z,28.84
2019-02-26T09:22:28.458Z,28.42
2019-02-26T09:23:33.565Z,29.67
2019-02-26T09:24:38.576Z,28.42
2019-02-26T09:25:43.283Z,27.95
2019-02-26T09:26:49.392Z,27.97
2019-02-26T09:27:55.644Z,28.13
2019-02-26T09:29:00.904Z,27.40
2019-02-26T09:30:09.002Z,27.12
2019-02-26T09:31:14.256Z,26.83
2019-02-26T09:32:18.975Z,27.01
2019-02-26T09:33:27.319Z,28.14
2019-02-26T09:34:31.677Z,28.16
2019-02-26T09:35:37.427Z,28.24
2019-02-26T09:36:42.685Z,27.26
2019-02-26T09:37:49.955Z,27.64
2019-02-26T09:38:54.664Z,27.64
2019-02-26T09:40:01.779Z,27.93
2019-02-26T09:41:07.033Z,26.82
2019-02-26T09:42:11.725Z,26.83
2019-02-26T09:43:17.275Z,26.26
2019-02-26T09:44:23.993Z,27.07
2019-02-26T09:45:30.285Z,26.63
2019-02-26T09:46:36.467Z,26.12
2019-02-26T09:47:42.231Z,26.12
2019-02-26T09:48:47.429Z,26.24
2019-02-26T09:49:53.899Z,25.98
2019-02-26T09:50:59.370Z,25.73
2019-02-26T09:52:06.429Z,25.37
2019-02-26T09:53:11.549Z,25.77
2019-02-26T09:54:17.824Z,26.03
2019-02-26T09:55:23.582Z,26.24
2019-02-26T09:56:28.853Z,26.42
2019-02-26T09:57:34.128Z,26.04
2019-02-26T09:58:40.262Z,26.42
2019-02-26T09:59:45.734Z,25.80
2019-02-26T10:00:53.781Z,26.05
2019-02-26T10:01:58.957Z,25.76
2019-02-26T10:03:07.447Z,25.01
2019-02-26T10:04:11.547Z,24.71
2019-02-26T10:05:18.242Z,24.52
2019-02-26T10:06:23.575Z,23.98
2019-02-26T10:07:30.694Z,22.43
2019-02-26T10:08:35.567Z,21.07
2019-02-26T10:09:45.730Z,20.85
2019-02-26T10:10:47.257Z,21.39
2019-02-26T10:11:52.556Z,21.73
2019-02-26T10:12:59.972Z,21.43
2019-02-26T10:14:05.296Z,21.45
2019-02-26T10:15:11.989Z,21.87
2019-02-26T10:16:17.316Z,21.94
2019-02-26T10:17:22.271Z,22.70
2019-02-26T10:18:28.013Z,22.71
2019-02-26T10:19:35.547Z,22.89
2019-02-26T10:20:40.417Z,22.68
2019-02-26T10:21:45.955Z,22.88
2019-02-26T10:22:53.129Z,22.34
2019-02-26T10:23:59.462Z,21.95
2019-02-26T10:25:05.140Z,22.36
2019-02-26T10:26:10.678Z,22.10
2019-02-26T10:27:16.373Z,21.73
2019-02-26T10:28:21.649Z,21.63
2019-02-26T10:29:27.947Z,20.02
2019-02-26T10:30:34.035Z,18.00
2019-02-26T10:31:41.205Z,16.28
2019-02-26T10:32:47.072Z,14.71
2019-02-26T10:33:51.999Z,14.21
2019-02-26T10:34:57.259Z,13.40
2019-02-26T10:36:05.238Z,12.50
2019-02-26T10:37:10.047Z,12.29
2019-02-26T10:38:15.025Z,11.38
2019-02-26T10:39:20.719Z,11.41
2019-02-26T10:40:34.825Z,13.14
2019-02-26T10:41:34.858Z,15.98
2019-02-26T10:42:40.098Z,17.25
2019-02-26T10:43:44.831Z,18.11
2019-02-26T10:44:49.794Z,19.60
2019-02-26T10:45:55.174Z,20.05
2019-02-26T10:47:02.684Z,20.67
2019-02-26T10:48:07.229Z,21.11
2019-02-26T10:49:12.482Z,21.07
2019-02-26T10:50:19.479Z,21.45
2019-02-26T10:51:27.054Z,22.06
2019-02-26T10:52:30.891Z,22.49
2019-02-26T10:53:36.137Z,22.70
2019-02-26T10:54:43.663Z,23.57
2019-02-26T10:55:48.126Z,23.50
2019-02-26T10:56:53.698Z,24.01
2019-02-26T10:58:03.680Z,24.59
2019-02-26T10:59:06.734Z,24.58
2019-02-26T11:00:22.634Z,24.87
2019-02-26T11:01:28.756Z,25.25
2019-02-26T11:02:34.216Z,24.33
2019-02-26T11:03:41.673Z,24.08
2019-02-26T11:04:49.263Z,24.10
2019-02-26T11:05:52.947Z,23.58
2019-02-26T11:06:59.389Z,23.41
2019-02-26T11:08:08.810Z,23.39
2019-02-26T11:09:17.414Z,23.21
2019-02-26T11:10:21.010Z,23.48
2019-02-26T11:11:27.153Z,23.80
2019-02-26T11:12:34.038Z,23.05
2019-02-26T11:13:40.703Z,23.01
2019-02-26T11:14:45.809Z,23.20
2019-02-26T11:15:53.793Z,23.37
2019-02-26T11:16:58.201Z,24.18
2019-02-26T11:18:02.634Z,24.19
2019-02-26T11:19:09.342Z,23.70
2019-02-26T11:20:13.804Z,23.35
2019-02-26T11:21:19.046Z,23.61
2019-02-26T11:22:25.167Z,22.89
2019-02-26T11:23:32.055Z,23.35
2019-02-26T11:24:37.143Z,23.06
2019-02-26T11:25:42.528Z,23.33
2019-02-26T11:26:47.261Z,23.13
2019-02-26T11:27:52.515Z,22.76
2019-02-26T11:28:57.211Z,22.45
2019-02-26T11:30:04.991Z,22.32
2019-02-26T11:31:11.383Z,22.09
2019-02-26T11:32:15.786Z,23.01
2019-02-26T11:33:20.720Z,23.01
2019-02-26T11:34:27.836Z,22.80
2019-02-26T11:35:32.194Z,21.79
2019-02-26T11:36:38.975Z,20.58
2019-02-26T11:37:45.417Z,19.79
2019-02-26T11:38:51.296Z,19.22
2019-02-26T11:39:57.712Z,19.37
2019-02-26T11:41:02.975Z,19.50
2019-02-26T11:42:10.389Z,19.35
2019-02-26T11:43:16.892Z,19.92
2019-02-26T11:44:23.550Z,20.56
2019-02-26T11:45:27.831Z,20.52
2019-02-26T11:46:34.382Z,20.80
2019-02-26T11:47:41.286Z,21.37
2019-02-26T11:48:47.580Z,21.54
2019-02-26T11:49:53.190Z,21.77
2019-02-26T11:51:00.817Z,22.17
2019-02-26T11:52:04.649Z,22.08
2019-02-26T11:53:10.131Z,22.23
2019-02-26T11:54:15.804Z,22.26
2019-02-26T11:55:23.073Z,22.12
2019-02-26T11:56:27.768Z,22.16
2019-02-26T11:57:34.935Z,21.78
2019-02-26T11:58:39.377Z,21.12
2019-02-26T11:59:44.371Z,21.46
2019-02-26T12:00:51.578Z,21.03
2019-02-26T12:01:58.961Z,21.25
2019-02-26T12:03:02.712Z,21.28
2019-02-26T12:04:08.508Z,21.75
2019-02-26T12:05:14.687Z,21.04
2019-02-26T12:06:19.925Z,21.20
2019-02-26T12:07:27.276Z,20.80
2019-02-26T12:08:31.283Z,20.66
2019-02-26T12:09:38.514Z,20.83
2019-02-26T12:10:43.319Z,20.68
2019-02-26T12:11:48.263Z,20.71
2019-02-26T12:12:54.112Z,21.17
2019-02-26T12:13:59.797Z,20.67
2019-02-26T12:15:07.282Z,20.83
2019-02-26T12:16:12.768Z,21.69
2019-02-26T12:17:17.737Z,21.20
2019-02-26T12:18:22.549Z,20.82
2019-02-26T12:19:28.993Z,21.23
2019-02-26T12:20:35.597Z,21.06
2019-02-26T12:21:41.741Z,21.54
2019-02-26T12:22:47.998Z,21.82
2019-02-26T12:23:53.139Z,21.57
2019-02-26T12:24:58.879Z,21.16
2019-02-26T12:26:05.260Z,21.46
2019-02-26T12:27:16.271Z,21.99
2019-02-26T12:28:17.447Z,22.11
2019-02-26T12:29:23.647Z,21.83
2019-02-26T12:30:28.595Z,21.16
2019-02-26T12:31:36.350Z,21.48
2019-02-26T12:32:41.696Z,21.67
2019-02-26T12:33:47.501Z,22.04
2019-02-26T12:34:52.463Z,21.39
2019-02-26T12:35:59.187Z,20.56
2019-02-26T12:37:08.735Z,21.47
2019-02-26T12:38:18.012Z,21.62
2019-02-26T12:39:18.679Z,21.44
2019-02-26T12:40:25.474Z,21.38
2019-02-26T12:41:32.561Z,21.72
2019-02-26T12:42:37.318Z,21.60
2019-02-26T12:43:43.965Z,21.16
2019-02-26T12:44:48.454Z,21.50
2019-02-26T12:45:56.059Z,21.34
2019-02-26T12:47:00.484Z,21.50
2019-02-26T12:48:06.512Z,20.89
2019-02-26T12:49:15.959Z,21.04
2019-02-26T12:50:23.024Z,20.95
2019-02-26T12:51:31.183Z,20.52
2019-02-26T12:52:33.641Z,20.64
2019-02-26T12:53:49.023Z,21.03
2019-02-26T12:54:51.371Z,21.12
2019-02-26T12:55:59.184Z,20.56
2019-02-26T12:57:04.344Z,20.40
2019-02-26T12:58:10.640Z,20.93
2019-02-26T12:59:15.281Z,20.35
2019-02-26T13:00:23.037Z,20.18
2019-02-26T13:01:26.549Z,21.06
2019-02-26T13:02:31.330Z,20.12
2019-02-26T13:03:39.763Z,21.04
2019-02-26T13:04:44.320Z,19.48
2019-02-26T13:05:51.772Z,19.13
2019-02-26T13:06:56.850Z,19.66
2019-02-26T13:08:01.787Z,20.09
2019-02-26T13:09:06.747Z,20.20
2019-02-26T13:10:14.019Z,20.80
2019-02-26T13:11:20.995Z,20.15
2019-02-26T13:12:29.684Z,20.30
2019-02-26T13:13:32.984Z,20.42
2019-02-26T13:14:37.998Z,20.42
2019-02-26T13:15:42.968Z,21.16
2019-02-26T13:16:48.834Z,20.64
2019-02-26T13:17:54.887Z,20.37
2019-02-26T13:19:01.583Z,20.36
2019-02-26T13:21:17.218Z,20.41
2019-02-26T13:22:21.951Z,20.29
2019-02-26T13:23:26.946Z,20.65
2019-02-26T13:24:31.439Z,20.40
2019-02-26T13:25:36.708Z,20.42
2019-02-26T13:26:43.470Z,20.56
2019-02-26T13:27:48.403Z,20.78
2019-02-26T13:28:56.168Z,21.31
2019-02-26T13:30:00.811Z,20.72
2019-02-26T13:31:08.781Z,21.07
2019-02-26T13:32:16.858Z,20.87
2019-02-26T13:33:26.374Z,21.04
2019-02-26T13:34:27.437Z,21.00
2019-02-26T13:35:32.769Z,21.20
2019-02-26T13:36:39.695Z,21.38
2019-02-26T13:37:44.841Z,21.21
2019-02-26T13:38:49.732Z,20.91
2019-02-26T13:39:54.612Z,21.30
2019-02-26T13:41:24.292Z,21.03
2019-02-26T13:42:13.116Z,21.59
2019-02-26T13:43:13.956Z,20.85
2019-02-26T13:44:19.364Z,21.32
2019-02-26T13:45:24.262Z,21.14
2019-02-26T13:46:28.707Z,21.05
2019-02-26T13:47:33.688Z,20.83
2019-02-26T13:48:38.454Z,21.26
2019-02-26T13:49:43.411Z,21.05
2019-02-26T13:50:48.357Z,21.20
2019-02-26T13:51:53.615Z,21.29
2019-02-26T13:52:58.593Z,21.82
2019-02-26T13:54:03.343Z,21.59
2019-02-26T13:55:09.451Z,21.61
2019-02-26T13:56:14.441Z,21.59
2019-02-26T13:57:19.578Z,21.25
2019-02-26T13:58:24.810Z,21.35
2019-02-26T13:59:30.079Z,21.48
2019-02-26T14:00:35.364Z,21.56
2019-02-26T14:01:40.165Z,21.63
2019-02-26T14:02:45.286Z,21.64
2019-02-26T14:03:50.255Z,21.34
2019-02-26T14:04:56.640Z,21.89
2019-02-26T14:06:01.922Z,21.80
2019-02-26T14:07:06.901Z,21.77
2019-02-26T14:08:12.162Z,21.36
2019-02-26T14:09:17.146Z,21.54
2019-02-26T14:10:21.725Z,21.52
2019-02-26T14:11:26.682Z,21.38
2019-02-26T14:12:31.966Z,21.57
2019-02-26T14:13:37.209Z,21.33
2019-02-26T14:14:42.456Z,22.60
2019-02-26T14:15:47.452Z,22.95
2019-02-26T14:16:52.130Z,22.09
2019-02-26T14:17:57.005Z,21.91
2019-02-26T14:19:02.266Z,22.00